Tiempo atmosférico en la estación meteorológica de La Seo d?Urgell, Lleida (690 m.)



Fecha
DESCASC
Temp. máxima en grados centígrados (hora)
DESCASC
Temp. mínima en grados centígrados (hora)
DESCASC
Temp. media en grados centígrados
DESCASC
Racha de viento máxima en m/sg (hora)
DESCASC
Velocidad máxima media en intervalos de 10 minutos(hora)
DESCASC
Precipitaciones diarias en mm
DESCASC
Precipitaciones de 00:00 a 06:00 en mm
DESCASC
Precipitaciones de 06:00 a 12:00 en mm
DESCASC
Precipitaciones de 12:00 a 18:00 en mm
DESCASC
Precipitaciones de 18:00 a 24:00 en mm
DESCASC

Gráficas

Temp. máximas Temp. mínimas Temp. medias Precipitaciones Rachas de viento máximas Velocidades máximas media en intervalos de 10 minutos

Datos horarios

Fecha y hora oficial Temperatura (ºC) Velocidad del viento (km/h) Dirección del viento Racha (km/h) Dirección de racha Precipitación (mm) Presión (hPa) Tendencia (hPa) Humedad (%)
2020-04-04 23:00:00 8.4 0 Calma 8 Noroeste 0 -- -- 67
2020-04-04 22:00:00 11.4 3 Noroeste 11 Oeste 0 -- -- 54
2020-04-04 21:00:00 13.2 6 Noroeste 14 Oeste 0 -- -- 45
2020-04-04 20:00:00 15 7 Oeste 20 Oeste 0 -- -- 40
2020-04-04 19:00:00 17.4 7 Oeste 19 Oeste 0 -- -- 36
2020-04-04 18:00:00 18.3 8 Oeste 20 Sudoeste 0 -- -- 35
2020-04-04 17:00:00 19.3 8 Oeste 22 Sudoeste 0 -- -- 32
2020-04-04 16:00:00 19.8 7 Sudoeste 19 Sudoeste 0 -- -- 32
2020-04-04 15:00:00 18.9 7 Sudoeste 21 Sudoeste 0 -- -- 33
2020-04-04 14:00:00 17.8 3 Oeste 14 Sudoeste 0 -- -- 35
2020-04-04 13:00:00 15.9 3 Sur 11 Sur 0 -- -- 39
2020-04-04 12:00:00 14.4 3 Sur 10 Sudoeste 0 -- -- 40
2020-04-04 11:00:00 11.6 3 Este 6 Este 0 -- -- 46
2020-04-04 10:00:00 8.9 2 Este 6 Sudoeste 0 -- -- 55
2020-04-04 09:00:00 4.2 3 Sudoeste 7 Sudoeste 0 -- -- 85
2020-04-04 08:00:00 1.5 0 Calma 6 Sudeste 0 -- -- 85
2020-04-04 07:00:00 2.4 0 Calma 11 Este 0 -- -- 81
2020-04-04 06:00:00 3 0 Calma 11 Este 0 -- -- 77
2020-04-04 05:00:00 4 5 Este 11 Este 0 -- -- 76
2020-04-04 04:00:00 4.6 3 Este 6 Este 0 -- -- 76
2020-04-04 03:00:00 4.8 2 Norte 6 Nordeste 0 -- -- 81
2020-04-04 02:00:00 4.8 0 Calma 5 Nordeste 0 -- -- 82
2020-04-04 01:00:00 6.1 0 Calma 6 Sudeste 0 -- -- 82
2020-04-04 00:00:00 6.5 2 Norte 5 Noroeste 0 -- -- 88
2020-04-03 23:00:00 6.9 0 Calma 3 Norte 0 -- -- 85
2020-04-03 22:00:00 8 0 Calma 6 Sur 0 -- -- 78
2020-04-03 21:00:00 10.8 0 Calma 10 Oeste 0 -- -- 66
2020-04-03 20:00:00 12.3 5 Noroeste 17 Noroeste 0 -- -- 56
2020-04-03 19:00:00 15.1 6 Noroeste 20 Oeste 0 -- -- 45
2020-04-03 18:00:00 16.2 8 Oeste 21 Oeste 0 -- -- 40
2020-04-03 17:00:00 17.7 6 Oeste 21 Sudoeste 0 -- -- 32
2020-04-03 16:00:00 18.3 8 Sudoeste 19 Sudoeste 0 -- -- 31
2020-04-03 15:00:00 17.1 7 Sudoeste 21 Sudoeste 0 -- -- 30
2020-04-03 14:00:00 17.6 2 Sur 13 Nordeste 0 -- -- 29
2020-04-03 13:00:00 16.6 0 Calma 8 Sudoeste 0 -- -- 32
2020-04-03 12:00:00 13.6 2 Sur 8 Sudoeste 0 -- -- 42
2020-04-03 11:00:00 10.8 2 Sur 6 Sudoeste 0 -- -- 53
2020-04-03 10:00:00 7.2 0 Calma 4 Sudeste 0 -- -- 82
2020-04-03 09:00:00 2.2 0 Calma 4 Nordeste 0 -- -- 97
2020-04-03 08:00:00 -0.5 0 Calma 3 Noroeste 0 -- -- 97
2020-04-03 07:00:00 -0.3 0 Calma 4 Norte 0 -- -- 96
2020-04-03 06:00:00 0.1 0 Calma 4 Noroeste 0 -- -- 96
2020-04-03 05:00:00 0.5 0 Calma 3 Noroeste 0 -- -- 95
2020-04-03 04:00:00 1 0 Calma 5 Noroeste 0 -- -- 95
2020-04-03 03:00:00 1.9 0 Calma 4 Noroeste 0 -- -- 94
2020-04-03 02:00:00 2.5 0 Calma 8 Nordeste 0 -- -- 93
2020-04-03 01:00:00 3.3 0 Calma 5 Noroeste 0 -- -- 92
2020-04-03 00:00:00 4.7 0 Calma 6 Sudeste 0 -- -- 91
2020-04-02 23:00:00 5.6 2 Nordeste 8 Norte 0 -- -- 89
2020-04-02 22:00:00 6.7 0 Calma 4 Nordeste 0 -- -- 87
2020-04-02 21:00:00 8.7 0 Calma 5 Oeste 0 -- -- 81
2020-04-02 20:00:00 10.4 0 Calma 12 Sudoeste 0 -- -- 72
2020-04-02 19:00:00 11.1 4 Oeste 14 Oeste 0 -- -- 65
2020-04-02 18:00:00 12.7 0 Calma 11 Este 0 -- -- 61
2020-04-02 17:00:00 12.4 4 Este 10 Sudoeste 0 -- -- 64
2020-04-02 16:00:00 12.7 3 Sudoeste 13 Sudoeste 0 -- -- 58
2020-04-02 15:00:00 13.2 2 Sudeste 12 Este 0 -- -- 57
2020-04-02 14:00:00 13.2 4 Sudoeste 11 Sudoeste 0 -- -- 54
2020-04-02 13:00:00 12.2 5 Sudoeste 10 Sudoeste 0 -- -- 55
2020-04-02 12:00:00 11.2 4 Oeste 10 Oeste 0 -- -- 62
2020-04-02 11:00:00 10 2 Sudoeste 7 Sudoeste 0 -- -- 73
2020-04-02 10:00:00 8.2 2 Oeste 5 Sudoeste 0 -- -- 94
2020-04-02 09:00:00 6.9 0 Calma 3 Sudoeste 0 -- -- 95
2020-04-02 08:00:00 6.3 0 Calma 2 Noroeste 0 -- -- 96
2020-04-02 07:00:00 6.3 0 Calma 3 Noroeste 0 -- -- 95
2020-04-02 06:00:00 6.7 0 Calma 2 Nordeste 0 -- -- 95
2020-04-02 05:00:00 6.7 0 Calma 2 Sudoeste 0 -- -- 95
2020-04-02 04:00:00 6.8 0 Calma 4 Sudoeste 0 -- -- 94
2020-04-02 03:00:00 6.9 0 Calma 4 Oeste 0 -- -- 94
2020-04-02 02:00:00 7.1 3 Sudoeste 5 Sur 0 -- -- 93
2020-04-02 01:00:00 7.2 0 Calma 5 Oeste 0 -- -- 92
2020-04-02 00:00:00 7.5 2 Sudoeste 7 Oeste 0 -- -- 91
2020-04-01 23:00:00 7.6 4 Oeste 9 Oeste 0 -- -- 90
2020-04-01 22:00:00 8.3 3 Oeste 7 Oeste 0 -- -- 88
2020-04-01 21:00:00 9.1 4 Oeste 12 Sudoeste 0 -- -- 83
2020-04-01 20:00:00 10.4 3 Oeste 9 Sudoeste 0 -- -- 73
2020-04-01 19:00:00 11.1 4 Sudoeste 8 Sudoeste 0 -- -- 68
2020-04-01 18:00:00 11.4 2 Sudoeste 6 Sudoeste 0 -- -- 69
2020-04-01 17:00:00 11 2 Sudoeste 10 Sudoeste 0 -- -- 66
2020-04-01 16:00:00 11.1 5 Sudoeste 12 Sudoeste 0 -- -- 70
2020-04-01 15:00:00 10.6 4 Sudoeste 11 Oeste 0 -- -- 76
2020-04-01 14:00:00 9.7 6 Oeste 15 Sudoeste 0 -- -- 77
2020-04-01 13:00:00 11.2 4 Sudoeste 9 Sudoeste 0 -- -- 67
2020-04-01 12:00:00 9.6 3 Sudoeste 7 Sudoeste 0 -- -- 82
2020-04-01 11:00:00 8.7 0 Calma 4 Este 0 -- -- 91
2020-04-01 10:00:00 7.7 2 Nordeste 6 Este 0 -- -- 95
2020-04-01 09:00:00 6.7 0 Calma 4 Noroeste 0 -- -- 96
2020-04-01 08:00:00 6.2 2 Norte 4 Norte 0 -- -- 96
2020-04-01 07:00:00 6.4 0 Calma 4 Sudeste 0 -- -- 96
2020-04-01 06:00:00 6.3 0 Calma 4 Sudeste 0 -- -- 96
2020-04-01 05:00:00 6.6 2 Oeste 4 Sudoeste 0 -- -- 95
2020-04-01 04:00:00 6.6 0 Calma 4 Sudeste 0 -- -- 95
2020-04-01 03:00:00 6.7 0 Calma 3 Nordeste 0 -- -- 95
2020-04-01 02:00:00 6.7 0 Calma 3 Sudoeste 0 -- -- 94
2020-04-01 01:00:00 7.1 0 Calma 2 Sudeste 0 -- -- 94
2020-04-01 00:00:00 7.2 0 Calma 6 Sudoeste 0 -- -- 92
2020-03-31 23:00:00 7.6 4 Oeste 9 Noroeste 0 -- -- 89
2020-03-31 22:00:00 8.2 3 Oeste 8 Oeste 0 -- -- 85
2020-03-31 21:00:00 8.5 4 Noroeste 10 Noroeste 0 -- -- 86
2020-03-31 20:00:00 8.9 4 Noroeste 13 Sudoeste 0 -- -- 85
2020-03-31 19:00:00 9.5 3 Oeste 9 Sudoeste 0 -- -- 80
2020-03-31 18:00:00 9.8 2 Sudoeste 5 Oeste 0 -- -- 76
2020-03-31 17:00:00 9.7 0 Calma 8 Este 0 -- -- 73
2020-03-31 16:00:00 10 3 Noroeste 6 Noroeste 0 -- -- 71
2020-03-31 15:00:00 9.7 0 Calma 6 Nordeste 0 -- -- 72
2020-03-31 14:00:00 8.7 2 Sudoeste 8 Sudoeste 0 -- -- 73
2020-03-31 13:00:00 9.2 3 Sudoeste 6 Sudoeste 0 -- -- 68
2020-03-31 12:00:00 9.3 2 Oeste 6 Sudeste 0 -- -- 69
2020-03-31 11:00:00 8.5 3 Sur 8 Sudoeste 0 -- -- 80
2020-03-31 10:00:00 6 0 Calma 4 Norte 0 -- -- 94
2020-03-31 09:00:00 4.9 3 Nordeste 4 Nordeste 0 -- -- 95
2020-03-31 08:00:00 4.4 0 Calma 4 Sur 0 -- -- 95
2020-03-31 07:00:00 4.4 0 Calma 4 Norte 0 -- -- 95
2020-03-31 06:00:00 4.6 0 Calma 5 Sudoeste 0 -- -- 95
2020-03-31 05:00:00 4.6 0 Calma 3 Sur 0 -- -- 95
2020-03-31 04:00:00 4.6 0 Calma 3 Sur 0 -- -- 94
2020-03-31 03:00:00 4.7 0 Calma 3 Sur 0 -- -- 94
2020-03-31 02:00:00 4.7 0 Calma 4 Sudoeste 0 -- -- 92
2020-03-31 01:00:00 4.7 3 Sudoeste 5 Sudoeste 0 -- -- 90
2020-03-31 00:00:00 5 0 Calma 5 Sudoeste 0 -- -- 86
2020-03-30 23:00:00 5.1 4 Sudoeste 7 Oeste 0 -- -- 85
2020-03-30 22:00:00 5.3 0 Calma 3 Sur 0 -- -- 83
2020-03-30 21:00:00 5.5 2 Oeste 9 Sudoeste 0 -- -- 77
2020-03-30 20:00:00 5.8 5 Oeste 12 Oeste 0 -- -- 73
2020-03-30 19:00:00 7 4 Sudoeste 12 Sudoeste 0 -- -- 68
2020-03-30 18:00:00 8.3 4 Oeste 9 Sudoeste 0 -- -- 66
2020-03-30 17:00:00 8.3 3 Sudeste 8 Sudoeste 0 -- -- 73
2020-03-30 16:00:00 5.5 4 Sudoeste 14 Oeste 0 -- -- 77
2020-03-30 15:00:00 6.2 6 Oeste 15 Oeste 0 -- -- 72
2020-03-30 14:00:00 5.8 3 Sudoeste 13 Noroeste 0 -- -- 75
2020-03-30 13:00:00 5.3 4 Noroeste 21 Sudoeste 0 -- -- 77
2020-03-30 12:00:00 5.3 7 Oeste 17 Oeste 0 -- -- 78
2020-03-30 11:00:00 5.5 5 Oeste 19 Noroeste 0 -- -- 82
2020-03-30 10:00:00 5.8 7 Oeste 20 Sudoeste 0 -- -- 83
2020-03-30 09:00:00 5.9 5 Oeste 18 Noroeste 0 -- -- 83
2020-03-30 08:00:00 6.3 5 Oeste 12 Oeste 0 -- -- 83
2020-03-30 07:00:00 6.7 4 Noroeste 9 Noroeste 0 -- -- 86
2020-03-30 06:00:00 6.8 3 Oeste 11 Oeste 0 -- -- 91
2020-03-30 05:00:00 7 0 Calma 5 Sudoeste 0 -- -- 92
2020-03-30 04:00:00 7.1 0 Calma 5 Sur 0 -- -- 91
2020-03-30 03:00:00 7.2 0 Calma 4 Nordeste 0 -- -- 90
2020-03-30 02:00:00 7.5 2 Sudoeste 4 Nordeste 0 -- -- 86
2020-03-30 01:00:00 8.4 2 Este 14 Sudoeste 0 -- -- 73
2020-03-30 00:00:00 9.7 8 Sudoeste 18 Sudoeste 0 -- -- 61
2020-03-29 23:00:00 9.9 0 Calma 10 Sudoeste 0 -- -- 61
2020-03-29 22:00:00 11 0 Calma 13 Sudoeste 0 -- -- 53
2020-03-29 21:00:00 12.3 6 Oeste 18 Sudoeste 0 -- -- 45
2020-03-29 20:00:00 13.3 6 Oeste 22 Sudoeste 0 -- -- 37
2020-03-29 19:00:00 15.4 6 Noroeste 23 Noroeste 0 -- -- 29
2020-03-29 18:00:00 16.6 0 Calma 21 Norte 0 -- -- 28
2020-03-29 17:00:00 16.2 5 Norte 16 Norte 0 -- -- 27
2020-03-29 16:00:00 18.3 5 Norte 19 Norte 0 -- -- 26
2020-03-29 15:00:00 19.8 6 Este 17 Oeste 0 -- -- 23
2020-03-29 14:00:00 19.7 0 Calma 8 Sudeste 0 -- -- 26
2020-03-29 13:00:00 17.2 0 Calma 8 Sudoeste 0 -- -- 30
2020-03-29 12:00:00 13.9 4 Sudoeste 8 Sudoeste 0 -- -- 42
2020-03-29 11:00:00 11.1 2 Nordeste 6 Este 0 -- -- 52
2020-03-29 10:00:00 7.1 0 Calma 4 Sudeste 0 -- -- 80
2020-03-29 09:00:00 1.8 2 Este 5 Nordeste 0 -- -- 96
2020-03-29 08:00:00 0 0 Calma 3 Sur 0 -- -- 96
2020-03-29 07:00:00 0.3 0 Calma 4 Noroeste 0 -- -- 96
2020-03-29 06:00:00 0.7 0 Calma 4 Sudoeste 0 -- -- 95
2020-03-29 05:00:00 1.3 0 Calma 5 Norte 0 -- -- 95
2020-03-29 03:00:00 2.3 0 Calma 4 Nordeste 0 -- -- 94
2020-03-29 01:00:00 2.9 0 Calma 5 Sur 0 -- -- 92
2020-03-29 00:00:00 3.7 0 Calma 5 Norte 0 -- -- 91
2020-03-28 23:00:00 4.5 0 Calma 5 Nordeste 0 -- -- 88
2020-03-28 22:00:00 5.8 0 Calma 5 Nordeste 0 -- -- 84
2020-03-28 21:00:00 7.9 0 Calma 5 Este 0 -- -- 76
2020-03-28 20:00:00 10.1 0 Calma 6 Sudoeste 0 -- -- 65
2020-03-28 19:00:00 12 2 Sudoeste 9 Noroeste 0 -- -- 52
2020-03-28 18:00:00 13.6 4 Oeste 11 Oeste 0 -- -- 45
2020-03-28 17:00:00 14.6 6 Oeste 14 Sudoeste 0 -- -- 41
2020-03-28 16:00:00 15.4 6 Sudoeste 15 Sudoeste 0 -- -- 40
2020-03-28 15:00:00 14.5 5 Oeste 13 Sudoeste 0 -- -- 39
2020-03-28 14:00:00 14.8 4 Sudoeste 10 Sudoeste 0 -- -- 37
2020-03-28 13:00:00 14.8 2 Sudoeste 10 Sur 0 -- -- 38
2020-03-28 12:00:00 14.7 2 Sur 9 Noroeste 0 -- -- 44
2020-03-28 11:00:00 12.4 2 Sudoeste 8 Sudoeste 0 -- -- 47
2020-03-28 10:00:00 9 0 Calma 6 Sur 0 -- -- 66
2020-03-28 09:00:00 6.1 3 Sudoeste 5 Sur 0 -- -- 86
2020-03-28 08:00:00 4.5 0 Calma 4 Norte 0 -- -- 92
2020-03-28 07:00:00 3.8 2 Nordeste 4 Nordeste 0 -- -- 92
2020-03-28 06:00:00 3.8 0 Calma 3 Sudeste 0 -- -- 91
2020-03-28 05:00:00 3.7 0 Calma 5 Noroeste 0 -- -- 90
2020-03-28 04:00:00 4.1 0 Calma 4 Noroeste 0 -- -- 88
2020-03-28 03:00:00 4.6 2 Sudoeste 4 Sudoeste 0 -- -- 87
2020-03-28 02:00:00 4.8 0 Calma 4 Noroeste 0 -- -- 85
2020-03-28 01:00:00 5.3 0 Calma 4 Este 0 -- -- 82
2020-03-28 00:00:00 5.8 0 Calma 4 Este 0 -- -- 79
2020-03-27 23:00:00 6.2 0 Calma 5 Nordeste 0 -- -- 72
2020-03-27 22:00:00 6.9 0 Calma 9 Oeste 0 -- -- 66
2020-03-27 21:00:00 7.6 3 Oeste 11 Este 0 -- -- 60
2020-03-27 20:00:00 8.2 3 Sudeste 15 Sur 0 -- -- 56
2020-03-27 19:00:00 9.5 6 Este 29 Este 0 -- -- 46
2020-03-27 18:00:00 10.9 4 Norte 13 Noroeste 0 -- -- 45
2020-03-27 17:00:00 11.8 5 Sudoeste 14 Sudoeste 0 -- -- 35
2020-03-27 16:00:00 12.9 2 Oeste 13 Noroeste 0 -- -- 29
2020-03-27 15:00:00 13.8 2 Nordeste 10 Sudoeste 0 -- -- 29
2020-03-27 14:00:00 12.6 4 Sudoeste 11 Sudoeste 0 -- -- 29
2020-03-27 13:00:00 12.1 5 Sudoeste 12 Sur 0 -- -- 33
2020-03-27 12:00:00 8.5 3 Sudoeste 7 Sur 0 -- -- 42
2020-03-27 11:00:00 6.3 0 Calma 6 Sudeste 0 -- -- 49
2020-03-27 10:00:00 5.2 3 Sur 8 Sudoeste 0 -- -- 58
2020-03-27 09:00:00 2.2 2 Sudeste 4 Sudeste 0 -- -- 91
2020-03-27 08:00:00 -2.2 0 Calma 4 Noroeste 0 -- -- 95
2020-03-27 07:00:00 -3.5 0 Calma 3 Nordeste 0 -- -- 95
2020-03-27 06:00:00 -3.6 0 Calma 3 Sur 0 -- -- 95
2020-03-27 05:00:00 -3.2 0 Calma 4 Norte 0 -- -- 95
2020-03-27 04:00:00 -2.7 0 Calma 5 Este 0 -- -- 94
2020-03-27 03:00:00 -2.3 0 Calma 4 Noroeste 0 -- -- 94
2020-03-27 02:00:00 -1.9 0 Calma 4 Nordeste 0 -- -- 93
2020-03-27 01:00:00 -1.2 0 Calma 3 Sur 0 -- -- 92
2020-03-27 00:00:00 -0.8 0 Calma 4 Nordeste 0 -- -- 90
2020-03-26 23:00:00 -0.1 0 Calma 5 Noroeste 0 -- -- 87
2020-03-26 22:00:00 0.7 0 Calma 7 Nordeste 0 -- -- 82
2020-03-26 21:00:00 2.1 2 Noroeste 4 Noroeste 0 -- -- 74
2020-03-26 20:00:00 4.2 3 Sudeste 10 Sudoeste 0 -- -- 64
2020-03-26 19:00:00 5.6 3 Este 19 Nordeste 0 -- -- 51
2020-03-26 18:00:00 6.8 10 Nordeste 23 Este 0 -- -- 47
2020-03-26 17:00:00 8 5 Sudeste 17 Sudeste 0 -- -- 42
2020-03-26 16:00:00 8 5 Sudeste 27 Nordeste 0 -- -- 42
2020-03-26 15:00:00 8.7 12 Nordeste 20 Nordeste 0 -- -- 42
2020-03-26 14:00:00 10.7 3 Este 17 Este 0 -- -- 45
2020-03-26 13:00:00 7.2 11 Nordeste 24 Este 0 -- -- 59
2020-03-26 12:00:00 7.7 12 Este 22 Este 0 -- -- 63
2020-03-26 11:00:00 5.5 4 Sudoeste 9 Sudoeste 0 -- -- 73
2020-03-26 10:00:00 5 3 Oeste 12 Sudoeste 0 -- -- 80
2020-03-26 09:00:00 5.3 4 Sudoeste 10 Sudoeste 0 -- -- 89
2020-03-26 08:00:00 2.1 0 Calma 9 Nordeste 0 -- -- 97
2020-03-26 07:00:00 0.6 0 Calma 6 Sudoeste 0 -- -- 97
2020-03-26 06:00:00 0.3 0 Calma 5 Sudeste 0 -- -- 97
2020-03-26 05:00:00 0.9 0 Calma 5 Noroeste 0 -- -- 96
2020-03-26 04:00:00 0.6 0 Calma 5 Nordeste 0 -- -- 96
2020-03-26 03:00:00 0.7 0 Calma 5 Sur 0 -- -- 96
2020-03-26 02:00:00 0.8 2 Nordeste 5 Este 0 -- -- 94
2020-03-26 01:00:00 1.6 0 Calma 4 Sur 0 -- -- 92
2020-03-26 00:00:00 3 0 Calma 5 Nordeste 0 -- -- 91
2020-03-25 23:00:00 4.2 0 Calma 4 Oeste 0 -- -- 90
2020-03-25 22:00:00 4.7 0 Calma 4 Norte 0 -- -- 88
2020-03-25 21:00:00 4.8 0 Calma 3 Sudoeste 0 -- -- 86
2020-03-25 20:00:00 4.8 0 Calma 3 Sur 0 -- -- 83
2020-03-25 19:00:00 5.2 0 Calma 6 Este 0 -- -- 79
2020-03-25 18:00:00 5.5 0 Calma 8 Este 0 -- -- 79
2020-03-25 17:00:00 5.9 5 Este 11 Sudeste 0 -- -- 72
2020-03-25 16:00:00 6 4 Norte 15 Noroeste 0 -- -- 63
2020-03-25 15:00:00 6.6 4 Noroeste 16 Sudoeste 0 -- -- 54
2020-03-25 14:00:00 8.4 3 Noroeste 11 Noroeste 0 -- -- 66
2020-03-25 13:00:00 6.2 0 Calma 8 Sudoeste 0 -- -- 80
2020-03-25 12:00:00 3.7 3 Sur 6 Sur 0 -- -- 93
2020-03-25 11:00:00 1.7 0 Calma 5 Sudeste 0 -- -- 94
2020-03-25 10:00:00 1.3 2 Sur 6 Noroeste 0 -- -- 93
2020-03-25 09:00:00 1.7 4 Oeste 14 Sudoeste 0 -- -- 90
2020-03-25 08:00:00 3.7 5 Este 14 Este 0 -- -- 82
2020-03-25 07:00:00 4.5 0 Calma 12 Oeste 0 -- -- 80
2020-03-25 06:00:00 4.8 4 Noroeste 10 Noroeste 0 -- -- 80
2020-03-25 05:00:00 5.1 4 Oeste 11 Oeste 0 -- -- 80
2020-03-25 04:00:00 5.5 3 Sudoeste 10 Sudoeste 0 -- -- 81
2020-03-25 03:00:00 5.5 4 Noroeste 13 Noroeste 0 -- -- 81
2020-03-25 02:00:00 5.7 5 Oeste 13 Noroeste 0 -- -- 80
2020-03-25 01:00:00 6.2 4 Oeste 13 Noroeste 0 -- -- 79
2020-03-25 00:00:00 6.6 4 Noroeste 13 Oeste 0 -- -- 79
2020-03-24 23:00:00 7.2 3 Oeste 12 Noroeste 0 -- -- 77
2020-03-24 22:00:00 7.7 4 Oeste 13 Noroeste 0 -- -- 73
2020-03-24 21:00:00 8.6 2 Noroeste 10 Norte 0 -- -- 65
2020-03-24 20:00:00 9.4 4 Noroeste 12 Oeste 0 -- -- 59
2020-03-24 19:00:00 10.4 6 Oeste 17 Noroeste 0 -- -- 53
2020-03-24 18:00:00 11.4 5 Oeste 15 Sudoeste 0 -- -- 51
2020-03-24 17:00:00 12.7 6 Oeste 20 Noroeste 0 -- -- 48
2020-03-24 16:00:00 14.9 8 Oeste 27 Sudoeste 0 -- -- 42
2020-03-24 15:00:00 16.2 10 Oeste 27 Sudoeste 0 -- -- 39
2020-03-24 14:00:00 17.7 9 Oeste 24 Sudoeste 0 -- -- 38
2020-03-24 13:00:00 16.7 7 Sudoeste 14 Sudoeste 0 -- -- 38
2020-03-24 12:00:00 15.8 3 Oeste 12 Sur 0 -- -- 40
2020-03-24 11:00:00 14.8 2 Sudoeste 9 Sudoeste 0 -- -- 44
2020-03-24 10:00:00 12.6 0 Calma 6 Sudoeste 0 -- -- 57
2020-03-24 09:00:00 8.8 4 Nordeste 8 Nordeste 0 -- -- 76
2020-03-24 08:00:00 6.2 0 Calma 4 Nordeste 0 -- -- 90
2020-03-24 07:00:00 5.4 0 Calma 4 Norte 0 -- -- 89
2020-03-24 06:00:00 5.6 0 Calma 4 Nordeste 0 -- -- 86
2020-03-24 05:00:00 6.1 0 Calma 8 Nordeste 0 -- -- 83
2020-03-24 04:00:00 6.6 0 Calma 6 Nordeste 0 -- -- 83
2020-03-24 03:00:00 6.8 2 Nordeste 4 Nordeste 0 -- -- 89
2020-03-24 02:00:00 7 0 Calma 4 Este 0 -- -- 88
2020-03-24 01:00:00 7 0 Calma 4 Nordeste 0 -- -- 88
2020-03-24 00:00:00 6.9 0 Calma 4 Noroeste 0 -- -- 86
2020-03-23 23:00:00 7.6 0 Calma 4 Sudeste 0 -- -- 82
2020-03-23 22:00:00 9.1 0 Calma 5 Sudeste 0 -- -- 82
2020-03-23 21:00:00 10 0 Calma 5 Noroeste 0 -- -- 79
2020-03-23 20:00:00 10.3 0 Calma 6 Sudeste 0 -- -- 74
2020-03-23 19:00:00 11.6 3 Oeste 15 Sudoeste 0 -- -- 63
2020-03-23 18:00:00 12.2 5 Sudoeste 15 Sur 0 -- -- 60
2020-03-23 17:00:00 12.6 4 Oeste 18 Sudoeste 0 -- -- 60
2020-03-23 16:00:00 13.4 6 Oeste 18 Sudoeste 0 -- -- 59
2020-03-23 15:00:00 12.9 8 Oeste 18 Sudoeste 0 -- -- 58
2020-03-23 14:00:00 13.1 6 Oeste 17 Sudoeste 0 -- -- 55
2020-03-23 13:00:00 13.3 5 Oeste 19 Sudoeste 0 -- -- 51
2020-03-23 12:00:00 12.9 6 Oeste 13 Sudoeste 0 -- -- 54
2020-03-23 11:00:00 11.3 6 Sudoeste 12 Sudoeste 0 -- -- 58
2020-03-23 10:00:00 11.6 4 Sudoeste 9 Oeste 0 -- -- 59
2020-03-23 09:00:00 8.3 2 Nordeste 5 Nordeste 0 -- -- 79
2020-03-23 08:00:00 6.4 0 Calma 4 Norte 0 -- -- 93
2020-03-23 07:00:00 5.5 0 Calma 4 Noroeste 0 -- -- 94
2020-03-23 06:00:00 5.1 0 Calma 4 Nordeste 0 -- -- 94
2020-03-23 05:00:00 4.4 0 Calma 4 Norte 0 -- -- 94
2020-03-23 04:00:00 4 0 Calma 4 Norte 0 -- -- 93
2020-03-23 03:00:00 4.4 0 Calma 4 Nordeste 0 -- -- 91
2020-03-23 02:00:00 5.5 0 Calma 5 Nordeste 0 -- -- 89
2020-03-23 01:00:00 6.8 0 Calma 5 Norte 0 -- -- 86
2020-03-23 00:00:00 8.5 0 Calma 5 Nordeste 0 -- -- 83
2020-03-22 23:00:00 9.6 2 Sudoeste 8 Noroeste 0 -- -- 78
2020-03-22 22:00:00 10.2 3 Noroeste 7 Oeste 0 -- -- 72
2020-03-22 21:00:00 11 4 Norte 13 Oeste 0 -- -- 60
2020-03-22 20:00:00 12.3 5 Noroeste 13 Sudoeste 0 -- -- 51
2020-03-22 19:00:00 12.8 5 Oeste 17 Oeste 0 -- -- 46
2020-03-22 18:00:00 14 5 Sudoeste 14 Sudoeste 0 -- -- 43
2020-03-22 17:00:00 14.2 6 Oeste 22 Oeste 0 -- -- 42
2020-03-22 16:00:00 15.1 5 Oeste 23 Sudoeste 0 -- -- 39
2020-03-22 15:00:00 15.5 9 Sudoeste 24 Sudoeste 0 -- -- 39
2020-03-22 14:00:00 16 9 Sudoeste 26 Sudoeste 0 -- -- 39
2020-03-22 13:00:00 14.7 6 Oeste 18 Sudoeste 0 -- -- 43
2020-03-22 12:00:00 16.2 4 Sur 11 Sudoeste 0 -- -- 43
2020-03-22 11:00:00 14 2 Sudoeste 7 Sudoeste 0 -- -- 53
2020-03-22 10:00:00 8.9 0 Calma 4 Este 0 -- -- 79
2020-03-22 09:00:00 4.9 0 Calma 4 Sur 0 -- -- 94
2020-03-22 08:00:00 3.8 0 Calma 4 Noroeste 0 -- -- 94
2020-03-22 07:00:00 3.3 0 Calma 2 Sudoeste 0 -- -- 93
2020-03-22 06:00:00 3.7 0 Calma 3 Nordeste 0 -- -- 91
2020-03-22 05:00:00 4.9 0 Calma 4 Nordeste 0 -- -- 89
2020-03-22 04:00:00 6.4 0 Calma 4 Nordeste 0 -- -- 86
2020-03-22 03:00:00 6.4 0 Calma 3 Sur 0 -- -- 86
2020-03-22 02:00:00 5.7 0 Calma 3 Noroeste 0 -- -- 86
2020-03-22 01:00:00 5.4 0 Calma 3 Noroeste 0 -- -- 85
2020-03-22 00:00:00 6.5 0 Calma 3 Noroeste 0 -- -- 78
2020-03-21 23:00:00 8.2 0 Calma 8 Noroeste 0 -- -- 66
2020-03-21 22:00:00 10.9 3 Noroeste 9 Noroeste 0 -- -- 53
2020-03-21 21:00:00 11.9 4 Noroeste 13 Oeste 0 -- -- 48
2020-03-21 20:00:00 12.3 5 Noroeste 10 Oeste 0 -- -- 45
2020-03-21 19:00:00 13.5 4 Oeste 11 Oeste 0 -- -- 40
2020-03-21 18:00:00 15.4 4 Oeste 16 Oeste 0 -- -- 37
2020-03-21 17:00:00 16.1 6 Sudoeste 21 Sudoeste 0 -- -- 35
2020-03-21 16:00:00 16.9 8 Oeste 22 Oeste 0 -- -- 33
2020-03-21 15:00:00 16.8 9 Oeste 25 Sudoeste 0 -- -- 34
2020-03-21 14:00:00 16.6 6 Oeste 17 Noroeste 0 -- -- 32
2020-03-21 13:00:00 15.8 3 Sudoeste 13 Sudoeste 0 -- -- 36
2020-03-21 12:00:00 13.4 5 Sur 12 Sudoeste 0 -- -- 47
2020-03-21 11:00:00 12 2 Sur 9 Sudoeste 0 -- -- 51
2020-03-21 10:00:00 9.5 0 Calma 5 Sudoeste 0 -- -- 66
2020-03-21 09:00:00 3.8 3 Sur 6 Sudoeste 0 -- -- 95
2020-03-21 08:00:00 1.9 0 Calma 4 Nordeste 0 -- -- 96
2020-03-21 07:00:00 0.8 0 Calma 4 Noroeste 0 -- -- 95
2020-03-21 06:00:00 0.7 0 Calma 3 Norte 0 -- -- 95
2020-03-21 05:00:00 1.1 0 Calma 4 Nordeste 0 -- -- 94
2020-03-21 04:00:00 1.8 0 Calma 3 Noroeste 0 -- -- 94
2020-03-21 03:00:00 2.3 0 Calma 3 Nordeste 0 -- -- 92
2020-03-21 02:00:00 3.2 0 Calma 3 Este 0 -- -- 91
2020-03-21 01:00:00 3.9 0 Calma 3 Nordeste 0 -- -- 89
2020-03-21 00:00:00 5 0 Calma 3 Sudeste 0 -- -- 86
2020-03-20 23:00:00 6.1 0 Calma 3 Este 0 -- -- 82
2020-03-20 22:00:00 7.1 0 Calma 4 Sur 0 -- -- 74
2020-03-20 21:00:00 8.7 0 Calma 8 Oeste 0 -- -- 63
2020-03-20 20:00:00 11.2 0 Calma 10 Noroeste 0 -- -- 49
2020-03-20 19:00:00 13 6 Noroeste 19 Sudoeste 0 -- -- 42
2020-03-20 18:00:00 15.5 7 Oeste 24 Sudoeste 0 -- -- 36
2020-03-20 17:00:00 16.3 8 Oeste 21 Sudoeste 0 -- -- 34
2020-03-20 16:00:00 17.9 8 Oeste 21 Sudoeste 0 -- -- 32
2020-03-20 15:00:00 17.6 8 Oeste 19 Sudoeste 0 -- -- 32
2020-03-20 14:00:00 18.1 8 Sudoeste 22 Sudoeste 0 -- -- 33
2020-03-20 13:00:00 17.1 5 Sudoeste 12 Sudoeste 0 -- -- 35
2020-03-20 12:00:00 16.1 5 Sudoeste 10 Sudoeste 0 -- -- 43
2020-03-20 11:00:00 13.6 0 Calma 7 Sudoeste 0 -- -- 48
2020-03-20 10:00:00 11.5 2 Sur 6 Sur 0 -- -- 57
2020-03-20 09:00:00 7.8 3 Sudoeste 5 Sudoeste 0 -- -- 87
2020-03-20 08:00:00 3.5 0 Calma 4 Este 0 -- -- 93
2020-03-20 07:00:00 3.1 0 Calma 3 Sudoeste 0 -- -- 92
2020-03-20 06:00:00 4.8 0 Calma 3 Sur 0 -- -- 91
2020-03-20 05:00:00 6 0 Calma 3 Sudoeste 0 -- -- 90
2020-03-20 04:00:00 6.1 0 Calma 3 Noroeste 0 -- -- 91
2020-03-20 03:00:00 5.9 0 Calma 3 Nordeste 0 -- -- 91
2020-03-20 02:00:00 5.1 0 Calma 4 Norte 0 -- -- 91
2020-03-20 01:00:00 4.7 0 Calma 3 Norte 0 -- -- 89
2020-03-20 00:00:00 5.3 0 Calma 4 Sudeste 0 -- -- 86
2020-03-19 23:00:00 6.3 0 Calma 3 Nordeste 0 -- -- 82
2020-03-19 22:00:00 7.7 0 Calma 4 Este 0 -- -- 74
2020-03-19 21:00:00 9.6 0 Calma 8 Noroeste 0 -- -- 61
2020-03-19 20:00:00 12.3 3 Noroeste 12 Noroeste 0 -- -- 45
2020-03-19 19:00:00 14 7 Oeste 25 Sudoeste 0 -- -- 39
2020-03-19 18:00:00 16.3 8 Oeste 28 Sudoeste 0 -- -- 35
2020-03-19 17:00:00 17.7 9 Oeste 22 Sudoeste 0 -- -- 29
2020-03-19 16:00:00 19.9 8 Oeste 24 Sudoeste 0 -- -- 26
2020-03-19 15:00:00 19.6 8 Oeste 19 Sudoeste 0 -- -- 28
2020-03-19 14:00:00 20 7 Sudoeste 19 Sudoeste 0 -- -- 30
2020-03-19 13:00:00 18.5 4 Sudoeste 14 Oeste 0 -- -- 38
2020-03-19 12:00:00 16 3 Sudoeste 8 Sur 0 -- -- 41
2020-03-19 11:00:00 13.5 4 Sudeste 8 Sur 0 -- -- 51
2020-03-19 10:00:00 10.1 0 Calma 7 Sur 0 -- -- 86
2020-03-19 09:00:00 6.4 0 Calma 4 Sudoeste 0 -- -- 96
2020-03-19 08:00:00 4.2 0 Calma 3 Sudoeste 0 -- -- 96
2020-03-19 07:00:00 4.3 0 Calma 3 Nordeste 0 -- -- 96
2020-03-19 06:00:00 4 0 Calma 3 Nordeste 0 -- -- 96
2020-03-19 05:00:00 3.9 0 Calma 3 Este 0 -- -- 95
2020-03-19 04:00:00 4.2 0 Calma 4 Norte 0 -- -- 95
2020-03-19 03:00:00 4.5 0 Calma 3 Noroeste 0 -- -- 94
2020-03-19 02:00:00 5 0 Calma 4 Norte 0 -- -- 94
2020-03-19 01:00:00 5.5 0 Calma 3 Norte 0 -- -- 94
2020-03-19 00:00:00 6.2 0 Calma 4 Noroeste 0 -- -- 93
2020-03-18 23:00:00 7.2 0 Calma 3 Nordeste 0 -- -- 91
2020-03-18 22:00:00 8.1 0 Calma 2 Noroeste 0 -- -- 89
2020-03-18 21:00:00 9.2 0 Calma 3 Norte 0 -- -- 85
2020-03-18 20:00:00 11 0 Calma 6 Este 0 -- -- 78
2020-03-18 19:00:00 13.4 0 Calma 11 Norte 0 -- -- 63
2020-03-18 18:00:00 14.4 3 Noroeste 10 Oeste 0 -- -- 57
2020-03-18 17:00:00 15.7 3 Norte 15 Sudoeste 0 -- -- 51
2020-03-18 16:00:00 17.8 4 Oeste 13 Sudoeste 0 -- -- 45
2020-03-18 15:00:00 17.8 5 Sudoeste 12 Sudoeste 0 -- -- 44
2020-03-18 14:00:00 17.1 3 Sudoeste 9 Sudoeste 0 -- -- 46
2020-03-18 13:00:00 15.1 3 Sudeste 6 Sudeste 0 -- -- 55
2020-03-18 12:00:00 14.1 0 Calma 6 Sudeste 0 -- -- 63
2020-03-18 11:00:00 9.9 0 Calma 5 Nordeste 0 -- -- 93
2020-03-18 10:00:00 7.8 3 Sur 6 Sur 0 -- -- 96
2020-03-18 09:00:00 6.2 0 Calma 3 Nordeste 0 -- -- 96
2020-03-18 08:00:00 5.6 0 Calma 5 Nordeste 0 -- -- 96
2020-03-18 07:00:00 5.7 2 Nordeste 5 Este 0 -- -- 96
2020-03-18 06:00:00 5.8 0 Calma 2 Nordeste 0 -- -- 96
2020-03-18 05:00:00 5.9 0 Calma 4 Nordeste 0 -- -- 96
2020-03-18 04:00:00 5.7 0 Calma 3 Noroeste 0 -- -- 95
2020-03-18 03:00:00 5.7 0 Calma 2 Sur 0 -- -- 95
2020-03-18 02:00:00 5.8 0 Calma 3 Norte 0 -- -- 95
2020-03-18 01:00:00 6.3 0 Calma 2 Nordeste 0 -- -- 94
2020-03-18 00:00:00 6.8 0 Calma 3 Nordeste 0 -- -- 94
2020-03-17 23:00:00 7.3 0 Calma 0 Calma 0 -- -- 93
2020-03-17 22:00:00 7.9 0 Calma 2 Sudeste 0 -- -- 92
2020-03-17 21:00:00 8.6 0 Calma 3 Nordeste 0 -- -- 90
2020-03-17 20:00:00 9.8 0 Calma 3 Norte 0 -- -- 87
2020-03-17 19:00:00 11.5 0 Calma 3 Nordeste 0 -- -- 81
2020-03-17 18:00:00 13.1 0 Calma 3 Sur 0 -- -- 72
2020-03-17 17:00:00 13.8 0 Calma 6 Este 0 -- -- 66
2020-03-17 16:00:00 13.6 0 Calma 5 Sudoeste 0 -- -- 66
2020-03-17 15:00:00 13.2 3 Sudoeste 5 Sudoeste 0 -- -- 65
2020-03-17 14:00:00 13.3 0 Calma 5 Sudoeste 0 -- -- 65
2020-03-17 13:00:00 12.9 3 Sudoeste 6 Sur 0 -- -- 69
2020-03-17 12:00:00 11.5 0 Calma 3 Sudeste 0 -- -- 80
2020-03-17 11:00:00 9.7 0 Calma 3 Sudoeste 0 -- -- 94
2020-03-17 10:00:00 8.3 0 Calma 4 Nordeste 0 -- -- 96
2020-03-17 09:00:00 7.5 3 Nordeste 5 Sudoeste 0 -- -- 96
2020-03-17 08:00:00 6.7 0 Calma 4 Sudoeste 0 -- -- 96
2020-03-17 07:00:00 6.5 0 Calma 4 Este 0 -- -- 96
2020-03-17 06:00:00 6.4 0 Calma 4 Noroeste 0 -- -- 96
2020-03-17 05:00:00 6.3 0 Calma 5 Nordeste 0 -- -- 96
2020-03-17 04:00:00 6.3 2 Sudoeste 5 Sudoeste 0 -- -- 96
2020-03-17 03:00:00 6.3 0 Calma 4 Noroeste 0 -- -- 96
2020-03-17 02:00:00 6.3 0 Calma 4 Nordeste 0 -- -- 96
2020-03-17 01:00:00 6.9 2 Norte 5 Noroeste 0 -- -- 96
2020-03-17 00:00:00 6.9 0 Calma 4 Sur 0 -- -- 96
2020-03-16 23:00:00 7 0 Calma 4 Sudoeste 0 -- -- 95
2020-03-16 22:00:00 7 0 Calma 5 Sudoeste 0 -- -- 95
2020-03-16 21:00:00 7 0 Calma 3 Sudoeste 0 -- -- 95
2020-03-16 20:00:00 7.2 2 Sur 6 Este 0 -- -- 95
2020-03-16 19:00:00 7.6 0 Calma 4 Sudoeste 0 -- -- 95
2020-03-16 18:00:00 7.5 0 Calma 3 Nordeste 0 -- -- 94
2020-03-16 17:00:00 7.6 0 Calma 5 Este 0 -- -- 94
2020-03-16 16:00:00 7.8 3 Este 5 Nordeste 0 -- -- 93
2020-03-16 15:00:00 7.8 0 Calma 10 Sudoeste 0 -- -- 91
2020-03-16 14:00:00 7.8 4 Sudoeste 14 Sudoeste 0 -- -- 89
2020-03-16 13:00:00 8.3 4 Oeste 9 Sudoeste 0 -- -- 89
2020-03-16 12:00:00 8.5 3 Sudoeste 8 Oeste 0 -- -- 88
2020-03-16 11:00:00 8.4 5 Sudoeste 14 Sudoeste 0 -- -- 95
2020-03-16 10:00:00 8.5 4 Sudoeste 10 Sudoeste 0 -- -- 95
2020-03-16 09:00:00 8.4 5 Noroeste 10 Noroeste 0 -- -- 95
2020-03-16 08:00:00 8.1 0 Calma 5 Este 0 -- -- 95
2020-03-16 07:00:00 8.2 0 Calma 4 Norte 0 -- -- 95
2020-03-16 06:00:00 8.3 0 Calma 4 Sudoeste 0 -- -- 95
2020-03-16 05:00:00 8.3 0 Calma 4 Sudoeste 0 -- -- 94
2020-03-16 04:00:00 8.5 2 Sudoeste 5 Nordeste 0 -- -- 94
2020-03-16 03:00:00 8.7 0 Calma 10 Noroeste 0 -- -- 92
2020-03-16 02:00:00 9 4 Noroeste 18 Noroeste 0 -- -- 90
2020-03-16 01:00:00 9.8 6 Noroeste 22 Noroeste 0 -- -- 79
2020-03-16 00:00:00 10.6 7 Oeste 16 Oeste 0 -- -- 71
2020-03-15 23:00:00 10.8 6 Oeste 18 Sudoeste 0 -- -- 71
2020-03-15 22:00:00 11.5 6 Oeste 21 Oeste 0 -- -- 70
2020-03-15 21:00:00 12.4 5 Oeste 20 Sudoeste 0 -- -- 69
2020-03-15 20:00:00 12.6 5 Oeste 24 Oeste 0 -- -- 68
2020-03-15 19:00:00 13.4 8 Oeste 25 Sudoeste 0 -- -- 63
2020-03-15 18:00:00 14.5 8 Noroeste 21 Noroeste 0 -- -- 57
2020-03-15 17:00:00 17 6 Oeste 22 Sudoeste 0 -- -- 44
2020-03-15 16:00:00 19.5 9 Oeste 23 Sudoeste 0 -- -- 33
2020-03-15 15:00:00 20.6 5 Sudoeste 22 Sudoeste 0 -- -- 29
2020-03-15 14:00:00 19.7 8 Oeste 21 Oeste 0 -- -- 35
2020-03-15 13:00:00 19.5 0 Calma 12 Sudoeste 0 -- -- 39
2020-03-15 12:00:00 17.2 5 Oeste 12 Oeste 0 -- -- 45
2020-03-15 11:00:00 16 2 Oeste 10 Noroeste 0 -- -- 48
2020-03-15 10:00:00 14.1 2 Sur 5 Sur 0 -- -- 57
2020-03-15 09:00:00 10.4 0 Calma 4 Nordeste 0 -- -- 82
2020-03-15 08:00:00 6.3 0 Calma 3 Noroeste 0 -- -- 91
2020-03-15 07:00:00 7.7 0 Calma 4 Nordeste 0 -- -- 90
2020-03-15 06:00:00 8.3 2 Sudoeste 5 Sudoeste 0 -- -- 89
2020-03-15 05:00:00 8.3 0 Calma 4 Sudoeste 0 -- -- 89
2020-03-15 04:00:00 8.7 0 Calma 4 Sudoeste 0 -- -- 89
2020-03-15 03:00:00 8.6 0 Calma 3 Nordeste 0 -- -- 89
2020-03-15 02:00:00 8.5 0 Calma 3 Sudoeste 0 -- -- 89
2020-03-15 01:00:00 8.4 0 Calma 2 Nordeste 0 -- -- 87
2020-03-15 00:00:00 9.4 0 Calma 3 Este 0 -- -- 85
2020-03-14 23:00:00 9.2 0 Calma 4 Noroeste 0 -- -- 85
2020-03-14 22:00:00 8.8 0 Calma 4 Este 0 -- -- 83
2020-03-14 21:00:00 9.3 0 Calma 5 Noroeste 0 -- -- 75
2020-03-14 20:00:00 12 3 Noroeste 10 Oeste 0 -- -- 65
2020-03-14 19:00:00 13.3 3 Noroeste 14 Sudoeste 0 -- -- 57
2020-03-14 18:00:00 15.5 5 Noroeste 15 Oeste 0 -- -- 50
2020-03-14 17:00:00 17.2 9 Oeste 19 Oeste 0 -- -- 45
2020-03-14 16:00:00 19.5 8 Noroeste 20 Noroeste 0 -- -- 41
2020-03-14 15:00:00 19.3 8 Oeste 24 Noroeste 0 -- -- 41
2020-03-14 14:00:00 18.8 5 Noroeste 19 Sudoeste 0 -- -- 44
2020-03-14 13:00:00 17.7 8 Oeste 17 Sudoeste 0 -- -- 45
2020-03-14 12:00:00 16.2 6 Sudoeste 14 Sur 0 -- -- 53
2020-03-14 11:00:00 15.5 3 Sudoeste 9 Sur 0 -- -- 56
2020-03-14 10:00:00 12.9 3 Sudoeste 8 Sur 0 -- -- 69
2020-03-14 09:00:00 9.5 3 Sudoeste 6 Sur 0 -- -- 93
2020-03-14 08:00:00 6.1 0 Calma 4 Noroeste 0 -- -- 94
2020-03-14 07:00:00 6.8 0 Calma 4 Sudoeste 0 -- -- 93
2020-03-14 06:00:00 7.8 2 Sudoeste 4 Nordeste 0 -- -- 92
2020-03-14 05:00:00 8.3 3 Sudoeste 5 Sur 0 -- -- 90
2020-03-14 04:00:00 8.5 3 Sudoeste 8 Sudoeste 0 -- -- 90
2020-03-14 03:00:00 8.9 4 Sudoeste 8 Sudoeste 0 -- -- 90
2020-03-14 02:00:00 8.7 0 Calma 5 Nordeste 0 -- -- 89
2020-03-14 01:00:00 9.6 2 Sudoeste 5 Sur 0 -- -- 86
2020-03-14 00:00:00 10.7 0 Calma 5 Sudoeste 0 -- -- 81
2020-03-13 23:00:00 11.4 0 Calma 4 Sudoeste 0 -- -- 76
2020-03-13 22:00:00 12.7 0 Calma 5 Sur 0 -- -- 68
2020-03-13 21:00:00 13.7 3 Oeste 8 Oeste 0 -- -- 61
2020-03-13 20:00:00 14.1 3 Noroeste 12 Oeste 0 -- -- 58
2020-03-13 19:00:00 14.8 5 Norte 16 Noroeste 0 -- -- 55
2020-03-13 18:00:00 17 5 Oeste 15 Oeste 0 -- -- 49
2020-03-13 17:00:00 17.4 7 Oeste 18 Oeste 0 -- -- 49
2020-03-13 16:00:00 18 8 Noroeste 19 Sudoeste 0 -- -- 47
2020-03-13 15:00:00 19.3 6 Oeste 21 Sudoeste 0 -- -- 47
2020-03-13 14:00:00 17.4 8 Oeste 20 Oeste 0 -- -- 51
2020-03-13 13:00:00 18.2 7 Sudoeste 20 Sudoeste 0 -- -- 51
2020-03-13 12:00:00 15.6 2 Oeste 13 Sudoeste 0 -- -- 61
2020-03-13 11:00:00 16.4 4 Sudoeste 9 Oeste 0 -- -- 63
2020-03-13 10:00:00 14.8 4 Oeste 10 Sudoeste 0 -- -- 77
2020-03-13 09:00:00 10.5 3 Noroeste 6 Sudeste 0 -- -- 94
2020-03-13 08:00:00 9.7 3 Sudoeste 6 Sudoeste 0 -- -- 94
2020-03-13 07:00:00 9.9 0 Calma 11 Noroeste 0 -- -- 93
2020-03-13 06:00:00 10.5 0 Calma 5 Sudoeste 0 -- -- 91
2020-03-13 05:00:00 11.7 0 Calma 12 Sudoeste 0 -- -- 88
2020-03-13 04:00:00 12.5 0 Calma 10 Sudoeste 0 -- -- 84
2020-03-13 03:00:00 13 5 Este 19 Norte 0 -- -- 81
2020-03-13 02:00:00 12.4 2 Norte 14 Norte 0 -- -- 84
2020-03-13 01:00:00 12.2 3 Nordeste 9 Nordeste 0 -- -- 84
2020-03-13 00:00:00 12.3 2 Sur 15 Oeste 0 -- -- 79
2020-03-12 23:00:00 12 0 Calma 9 Nordeste 0 -- -- 75
2020-03-12 22:00:00 11.5 2 Norte 4 Nordeste 0 -- -- 72
2020-03-12 21:00:00 12.4 0 Calma 3 Sudeste 0 -- -- 64
2020-03-12 20:00:00 15.2 0 Calma 3 Norte 0 -- -- 55
2020-03-12 19:00:00 19.2 2 Sur 9 Oeste 0 -- -- 37
2020-03-12 18:00:00 22.3 4 Oeste 14 Sudoeste 0 -- -- 30
2020-03-12 17:00:00 24.1 7 Sudoeste 17 Sudoeste 0 -- -- 26
2020-03-12 16:00:00 25.4 9 Sudoeste 24 Sudoeste 0 -- -- 25
2020-03-12 15:00:00 26.4 6 Sudoeste 14 Sudoeste 0 -- -- 25
2020-03-12 14:00:00 24.9 3 Sudoeste 11 Sur 0 -- -- 28
2020-03-12 13:00:00 22.1 3 Sudoeste 7 Sudoeste 0 -- -- 32
2020-03-12 12:00:00 19.5 3 Sur 9 Sur 0 -- -- 37
2020-03-12 11:00:00 16.9 2 Sudeste 5 Sudeste 0 -- -- 44
2020-03-12 10:00:00 13 0 Calma 4 Sur 0 -- -- 57
2020-03-12 09:00:00 7.7 0 Calma 6 Sudeste 0 -- -- 92
2020-03-12 08:00:00 3.7 0 Calma 4 Noroeste 0 -- -- 94
2020-03-12 07:00:00 3.7 0 Calma 3 Norte 0 -- -- 94
2020-03-12 06:00:00 3.6 0 Calma 4 Nordeste 0 -- -- 93
2020-03-12 05:00:00 4.3 0 Calma 4 Nordeste 0 -- -- 92
2020-03-12 04:00:00 4.8 0 Calma 5 Norte 0 -- -- 91
2020-03-12 03:00:00 5.5 0 Calma 4 Norte 0 -- -- 89
2020-03-12 02:00:00 6.1 0 Calma 4 Noroeste 0 -- -- 87
2020-03-12 01:00:00 6.7 0 Calma 4 Sudeste 0 -- -- 85
2020-03-12 00:00:00 7.4 0 Calma 4 Noroeste 0 -- -- 82
2020-03-11 23:00:00 7.7 0 Calma 4 Nordeste 0 -- -- 80
2020-03-11 22:00:00 8.5 0 Calma 3 Este 0 -- -- 76
2020-03-11 21:00:00 9.9 0 Calma 3 Nordeste 0 -- -- 68
2020-03-11 20:00:00 12.4 0 Calma 4 Sudoeste 0 -- -- 57
2020-03-11 19:00:00 16.8 3 Sudoeste 12 Oeste 0 -- -- 37
2020-03-11 18:00:00 21.5 6 Oeste 15 Oeste 0 -- -- 27
2020-03-11 17:00:00 23.2 5 Noroeste 17 Oeste 0 -- -- 26
2020-03-11 16:00:00 25.1 5 Oeste 17 Noroeste 0 -- -- 24
2020-03-11 15:00:00 24.7 7 Sudoeste 14 Sudoeste 0 -- -- 22
2020-03-11 14:00:00 23.9 5 Sudoeste 10 Sudoeste 0 -- -- 23
2020-03-11 13:00:00 21.5 4 Sudoeste 9 Sur 0 -- -- 27
2020-03-11 12:00:00 18.7 2 Sudoeste 6 Sur 0 -- -- 30
2020-03-11 11:00:00 15.8 2 Sudeste 6 Sudeste 0 -- -- 39
2020-03-11 10:00:00 12.2 2 Sur 6 Sudoeste 0 -- -- 53
2020-03-11 09:00:00 5.9 0 Calma 6 Nordeste 0 -- -- 92
2020-03-11 08:00:00 1 0 Calma 6 Nordeste 0 -- -- 95
2020-03-11 07:00:00 1.1 0 Calma 6 Nordeste 0 -- -- 96
2020-03-11 06:00:00 1.3 0 Calma 4 Este 0 -- -- 95
2020-03-11 05:00:00 1.8 0 Calma 6 Nordeste 0 -- -- 95
2020-03-11 04:00:00 2.2 2 Sudeste 5 Norte 0 -- -- 94
2020-03-11 03:00:00 2.8 0 Calma 6 Nordeste 0 -- -- 94
2020-03-11 02:00:00 3.9 0 Calma 4 Nordeste 0 -- -- 93
2020-03-11 01:00:00 4.9 0 Calma 4 Norte 0 -- -- 92
2020-03-11 00:00:00 5.7 0 Calma 4 Nordeste 0 -- -- 90
2020-03-10 23:00:00 6.5 0 Calma 5 Noroeste 0 -- -- 87
2020-03-10 22:00:00 7.5 0 Calma 5 Nordeste 0 -- -- 83
2020-03-10 21:00:00 8.8 0 Calma 5 Noroeste 0 -- -- 78
2020-03-10 20:00:00 10.5 2 Nordeste 6 Oeste 0 -- -- 67
2020-03-10 19:00:00 12.7 0 Calma 6 Oeste 0 -- -- 55
2020-03-10 18:00:00 15 0 Calma 8 Oeste 0 -- -- 47
2020-03-10 17:00:00 16.2 4 Sudoeste 14 Sudoeste 0 -- -- 44
2020-03-10 16:00:00 17.6 7 Sudoeste 14 Oeste 0 -- -- 39
2020-03-10 15:00:00 20.2 6 Sudoeste 12 Oeste 0 -- -- 35
2020-03-10 14:00:00 19.2 4 Sudoeste 12 Sudoeste 0 -- -- 35
2020-03-10 13:00:00 17.4 5 Sudoeste 9 Sur 0 -- -- 37
2020-03-10 12:00:00 14.8 3 Sudoeste 10 Oeste 0 -- -- 41
2020-03-10 11:00:00 12.4 0 Calma 7 Sudeste 0 -- -- 49
2020-03-10 10:00:00 8.6 0 Calma 10 Nordeste 0 -- -- 61
2020-03-10 09:00:00 3 0 Calma 5 Nordeste 0 -- -- 89
2020-03-10 08:00:00 1.1 0 Calma 6 Noroeste 0 -- -- 90
2020-03-10 07:00:00 0.7 0 Calma 7 Nordeste 0 -- -- 88
2020-03-10 06:00:00 1.2 0 Calma 7 Nordeste 0 -- -- 87
2020-03-10 05:00:00 1.7 0 Calma 6 Nordeste 0 -- -- 85
2020-03-10 04:00:00 1.8 0 Calma 5 Noroeste 0 -- -- 82
2020-03-10 03:00:00 2.9 0 Calma 5 Sudoeste 0 -- -- 76
2020-03-10 02:00:00 4 3 Noroeste 8 Noroeste 0 -- -- 75
2020-03-10 01:00:00 3.1 0 Calma 5 Norte 0 -- -- 75
2020-03-10 00:00:00 3.6 0 Calma 9 Nordeste 0 -- -- 68
2020-03-09 23:00:00 4.8 0 Calma 9 Nordeste 0 -- -- 60
2020-03-09 22:00:00 6.2 0 Calma 12 Oeste 0 -- -- 50
2020-03-09 21:00:00 7.8 3 Oeste 12 Oeste 0 -- -- 44
2020-03-09 20:00:00 9.4 6 Oeste 12 Noroeste 0 -- -- 36
2020-03-09 19:00:00 11.4 6 Noroeste 27 Norte 0 -- -- 29
2020-03-09 18:00:00 12.1 5 Norte 15 Oeste 0 -- -- 27
2020-03-09 17:00:00 13.9 5 Noroeste 18 Noroeste 0 -- -- 25
2020-03-09 16:00:00 16.4 4 Noroeste 32 Sudoeste 0 -- -- 24
2020-03-09 15:00:00 15 12 Sudoeste 31 Oeste 0 -- -- 25
2020-03-09 14:00:00 15.1 9 Oeste 45 Noroeste 0 -- -- 23
2020-03-09 13:00:00 15 5 Nordeste 26 Sudoeste 0 -- -- 24
2020-03-09 12:00:00 14.4 3 Sudoeste 46 Norte 0 -- -- 26
2020-03-09 11:00:00 13.5 6 Noroeste 37 Noroeste 0 -- -- 27
2020-03-09 10:00:00 11.7 6 Oeste 27 Sudoeste 0 -- -- 37
2020-03-09 09:00:00 5.6 2 Norte 10 Norte 0 -- -- 87
2020-03-09 08:00:00 1.5 3 Sudoeste 7 Noroeste 0 -- -- 95
2020-03-09 07:00:00 1.4 2 Norte 8 Noroeste 0 -- -- 95
2020-03-09 06:00:00 1.8 0 Calma 10 Nordeste 0 -- -- 94
2020-03-09 05:00:00 2.2 0 Calma 8 Sudoeste 0 -- -- 94
2020-03-09 04:00:00 1.8 0 Calma 5 Noroeste 0 -- -- 94
2020-03-09 03:00:00 1.9 0 Calma 5 Oeste 0 -- -- 94
2020-03-09 02:00:00 2.3 0 Calma 5 Norte 0 -- -- 93
2020-03-09 01:00:00 2.6 0 Calma 5 Nordeste 0 -- -- 91
2020-03-09 00:00:00 3.4 0 Calma 3 Nordeste 0 -- -- 89
2020-03-08 23:00:00 4.6 0 Calma 4 Nordeste 0 -- -- 86
2020-03-08 22:00:00 5.9 0 Calma 3 Nordeste 0 -- -- 82
2020-03-08 21:00:00 7.4 0 Calma 5 Norte 0 -- -- 74
2020-03-08 20:00:00 10.4 2 Sudoeste 8 Oeste 0 -- -- 60
2020-03-08 19:00:00 12.9 0 Calma 14 Oeste 0 -- -- 49
2020-03-08 18:00:00 14.1 4 Oeste 14 Noroeste 0 -- -- 45
2020-03-08 17:00:00 15.8 6 Noroeste 16 Noroeste 0 -- -- 38
2020-03-08 16:00:00 19.2 4 Oeste 14 Oeste 0 -- -- 32
2020-03-08 15:00:00 17.5 4 Noroeste 12 Sur 0 -- -- 31
2020-03-08 14:00:00 17.8 5 Oeste 10 Sudoeste 0 -- -- 29
2020-03-08 13:00:00 16.8 4 Sur 9 Sudoeste 0 -- -- 32
2020-03-08 12:00:00 14.1 2 Este 7 Sudoeste 0 -- -- 36
2020-03-08 11:00:00 12.4 0 Calma 6 Sudoeste 0 -- -- 42
2020-03-08 10:00:00 8.6 2 Este 6 Este 0 -- -- 57
2020-03-08 09:00:00 2.7 0 Calma 5 Sudoeste 0 -- -- 91
2020-03-08 08:00:00 -0.5 0 Calma 5 Nordeste 0 -- -- 92
2020-03-08 07:00:00 -0.1 0 Calma 5 Sudoeste 0 -- -- 90
2020-03-08 06:00:00 0.8 0 Calma 5 Noroeste 0 -- -- 88
2020-03-08 05:00:00 2 0 Calma 6 Noroeste 0 -- -- 84
2020-03-08 04:00:00 3.4 0 Calma 5 Sudoeste 0 -- -- 79
2020-03-08 03:00:00 4 0 Calma 5 Noroeste 0 -- -- 75
2020-03-08 02:00:00 4.5 2 Este 8 Norte 0 -- -- 73
2020-03-08 01:00:00 3.8 3 Norte 8 Norte 0 -- -- 75
2020-03-08 00:00:00 3.8 2 Norte 5 Norte 0 -- -- 73
2020-03-07 23:00:00 3.6 0 Calma 7 Nordeste 0 -- -- 73
2020-03-07 22:00:00 5.1 0 Calma 5 Norte 0 -- -- 62
2020-03-07 21:00:00 6.5 3 Nordeste 10 Este 0 -- -- 52
2020-03-07 20:00:00 9.7 4 Sudoeste 14 Norte 0 -- -- 37
2020-03-07 19:00:00 11.5 7 Norte 22 Nordeste 0 -- -- 33
2020-03-07 18:00:00 13.5 6 Nordeste 35 Nordeste 0 -- -- 29
2020-03-07 17:00:00 13.3 11 Norte 34 Nordeste 0 -- -- 27
2020-03-07 16:00:00 14.9 9 Norte 28 Norte 0 -- -- 20
2020-03-07 15:00:00 14.9 3 Norte 27 Norte 0 -- -- 21
2020-03-07 14:00:00 13.4 4 Norte 22 Noroeste 0 -- -- 25
2020-03-07 13:00:00 13.2 8 Este 31 Nordeste 0 -- -- 28
2020-03-07 12:00:00 11.6 3 Norte 36 Nordeste 0 -- -- 32
2020-03-07 11:00:00 10.3 3 Nordeste 27 Nordeste 0 -- -- 35
2020-03-07 10:00:00 8.7 10 Nordeste 24 Nordeste 0 -- -- 51
2020-03-07 09:00:00 2.6 6 Este 10 Este 0 -- -- 96
2020-03-07 08:00:00 0.9 0 Calma 7 Noroeste 0 -- -- 96
2020-03-07 07:00:00 0.6 0 Calma 5 Noroeste 0 -- -- 96
2020-03-07 06:00:00 0.7 0 Calma 5 Norte 0 -- -- 96
2020-03-07 05:00:00 0.8 2 Sudoeste 6 Este 0.1 -- -- 95
2020-03-07 04:00:00 0.7 0 Calma 6 Sudoeste 1.1 -- -- 94
2020-03-07 03:00:00 1.2 3 Sudoeste 9 Oeste 1 -- -- 92
2020-03-07 02:00:00 1.9 5 Oeste 9 Sudoeste 0 -- -- 93
2020-03-07 01:00:00 1.7 0 Calma 8 Nordeste 0 -- -- 92
2020-03-07 00:00:00 1.8 0 Calma 9 Este 0.1 -- -- 91
2020-03-06 23:00:00 2.1 3 Nordeste 9 Oeste 0.4 -- -- 85
2020-03-06 22:00:00 3 2 Sur 8 Sudoeste 0.1 -- -- 78
2020-03-06 21:00:00 3.5 3 Sudoeste 8 Oeste 0 -- -- 73
2020-03-06 20:00:00 3.1 3 Nordeste 18 Sudoeste 0 -- -- 75
2020-03-06 19:00:00 5.5 8 Noroeste 24 Sudoeste 0 -- -- 49
2020-03-06 18:00:00 7.3 10 Oeste 25 Sudoeste 0 -- -- 38
2020-03-06 17:00:00 9.6 9 Oeste 24 Noroeste 0 -- -- 31
2020-03-06 16:00:00 11.6 3 Norte 46 Sudoeste 0 -- -- 31
2020-03-06 15:00:00 11.3 10 Oeste 26 Oeste 0 -- -- 30
2020-03-06 14:00:00 11 11 Oeste 34 Noroeste 0 -- -- 33
2020-03-06 13:00:00 11.1 11 Oeste 30 Noroeste 0 -- -- 31
2020-03-06 12:00:00 11.5 4 Sudoeste 15 Sudoeste 0 -- -- 38
2020-03-06 11:00:00 9.2 2 Este 9 Este 0 -- -- 45
2020-03-06 10:00:00 4.9 3 Nordeste 7 Sudoeste 0 -- -- 61
2020-03-06 09:00:00 1.1 0 Calma 6 Sur 0 -- -- 78
2020-03-06 08:00:00 -1.1 0 Calma 4 Nordeste 0 -- -- 86
2020-03-06 07:00:00 -1.7 0 Calma 5 Norte 0 -- -- 84
2020-03-06 06:00:00 -1.2 0 Calma 5 Nordeste 0 -- -- 82
2020-03-06 05:00:00 -0.3 0 Calma 5 Nordeste 0 -- -- 79
2020-03-06 04:00:00 -0.3 0 Calma 5 Norte 0 -- -- 80
2020-03-06 03:00:00 0 0 Calma 4 Norte 0 -- -- 77
2020-03-06 02:00:00 1.1 0 Calma 5 Norte 0 -- -- 68
2020-03-06 01:00:00 3.1 0 Calma 8 Nordeste 0 -- -- 55
2020-03-06 00:00:00 5.7 0 Calma 16 Oeste 0 -- -- 43